sensor_id;sensor_type;location;lat;lon;timestamp;temperature;humidity
1992;DHT22;997;48.448;8.924;2023-08-06T03:05:08;14.50;99.90
1992;DHT22;997;48.448;8.924;2023-08-06T03:07:34;14.50;99.90
1992;DHT22;997;48.448;8.924;2023-08-06T03:10:01;14.60;99.90
1992;DHT22;997;48.448;8.924;2023-08-06T03:12:27;14.60;99.90
1992;DHT22;997;48.448;8.924;2023-08-06T03:15:07;14.60;99.90
1992;DHT22;997;48.448;8.924;2023-08-06T03:17:33;14.60;99.90
1992;DHT22;997;48.448;8.924;2023-08-06T03:19:58;14.60;99.90
1992;DHT22;997;48.448;8.924;2023-08-06T03:22:24;14.60;99.90
1992;DHT22;997;48.448;8.924;2023-08-06T03:24:53;14.40;99.90
1992;DHT22;997;48.448;8.924;2023-08-06T03:27:18;14.30;99.90
1992;DHT22;997;48.448;8.924;2023-08-06T03:29:44;14.30;99.90
1992;DHT22;997;48.448;8.924;2023-08-06T03:32:09;14.20;99.90
1992;DHT22;997;48.448;8.924;2023-08-06T03:34:35;14.30;99.90
1992;DHT22;997;48.448;8.924;2023-08-06T03:37:01;14.40;99.90
1992;DHT22;997;48.448;8.924;2023-08-06T03:39:26;14.40;99.90
1992;DHT22;997;48.448;8.924;2023-08-06T03:41:52;14.40;99.90
1992;DHT22;997;48.448;8.924;2023-08-06T03:44:18;14.50;99.90
1992;DHT22;997;48.448;8.924;2023-08-06T03:46:43;14.50;99.90
1992;DHT22;997;48.448;8.924;2023-08-06T03:49:09;14.40;99.90
1992;DHT22;997;48.448;8.924;2023-08-06T03:51:34;14.40;99.90
1992;DHT22;997;48.448;8.924;2023-08-06T03:54:00;14.40;99.90
1992;DHT22;997;48.448;8.924;2023-08-06T03:56:26;14.30;99.90
1992;DHT22;997;48.448;8.924;2023-08-06T03:58:51;14.20;99.90
1992;DHT22;997;48.448;8.924;2023-08-06T04:01:17;14.10;99.90
1992;DHT22;997;48.448;8.924;2023-08-06T04:03:42;14.00;99.90
1992;DHT22;997;48.448;8.924;2023-08-06T04:06:08;13.90;99.90
1992;DHT22;997;48.448;8.924;2023-08-06T04:08:34;13.80;99.90
1992;DHT22;997;48.448;8.924;2023-08-06T04:10:59;13.80;99.90
1992;DHT22;997;48.448;8.924;2023-08-06T04:13:25;13.80;99.90
1992;DHT22;997;48.448;8.924;2023-08-06T04:15:51;13.80;99.90
1992;DHT22;997;48.448;8.924;2023-08-06T04:18:16;13.90;99.90
1992;DHT22;997;48.448;8.924;2023-08-06T04:20:43;14.00;99.90
1992;DHT22;997;48.448;8.924;2023-08-06T04:23:09;14.10;99.90
1992;DHT22;997;48.448;8.924;2023-08-06T04:25:35;14.10;99.90
1992;DHT22;997;48.448;8.924;2023-08-06T04:28:00;14.20;99.90
1992;DHT22;997;48.448;8.924;2023-08-06T04:30:26;14.20;99.90
1992;DHT22;997;48.448;8.924;2023-08-06T04:32:52;14.20;99.90
1992;DHT22;997;48.448;8.924;2023-08-06T04:35:17;14.20;99.90
1992;DHT22;997;48.448;8.924;2023-08-06T04:37:43;14.20;99.90
1992;DHT22;997;48.448;8.924;2023-08-06T04:40:09;14.00;99.90
1992;DHT22;997;48.448;8.924;2023-08-06T04:42:35;14.00;99.90
1992;DHT22;997;48.448;8.924;2023-08-06T04:45:04;14.00;99.90
1992;DHT22;997;48.448;8.924;2023-08-06T04:47:30;13.90;99.90
1992;DHT22;997;48.448;8.924;2023-08-06T04:49:55;13.90;99.90
1992;DHT22;997;48.448;8.924;2023-08-06T04:52:21;13.90;99.90
1992;DHT22;997;48.448;8.924;2023-08-06T04:54:47;14.00;99.90
1992;DHT22;997;48.448;8.924;2023-08-06T04:57:12;14.00;99.90
1992;DHT22;997;48.448;8.924;2023-08-06T04:59:39;14.00;99.90
1992;DHT22;997;48.448;8.924;2023-08-06T05:02:05;14.00;99.90
1992;DHT22;997;48.448;8.924;2023-08-06T05:04:30;13.90;99.90
1992;DHT22;997;48.448;8.924;2023-08-06T05:06:56;13.90;99.90
1992;DHT22;997;48.448;8.924;2023-08-06T05:09:21;13.90;99.90
1992;DHT22;997;48.448;8.924;2023-08-06T05:11:47;13.90;99.90
1992;DHT22;997;48.448;8.924;2023-08-06T05:14:13;14.00;99.90
1992;DHT22;997;48.448;8.924;2023-08-06T05:16:39;14.10;99.90
1992;DHT22;997;48.448;8.924;2023-08-06T05:19:05;14.20;99.90
1992;DHT22;997;48.448;8.924;2023-08-06T05:21:30;14.20;99.90
1992;DHT22;997;48.448;8.924;2023-08-06T05:23:56;14.30;99.90
1992;DHT22;997;48.448;8.924;2023-08-06T05:26:21;14.20;99.90
1992;DHT22;997;48.448;8.924;2023-08-06T05:28:47;14.30;99.90
1992;DHT22;997;48.448;8.924;2023-08-06T05:31:13;14.40;99.90
1992;DHT22;997;48.448;8.924;2023-08-06T05:33:39;14.40;99.90
1992;DHT22;997;48.448;8.924;2023-08-06T05:36:04;14.50;99.90
1992;DHT22;997;48.448;8.924;2023-08-06T05:38:30;14.50;99.90
1992;DHT22;997;48.448;8.924;2023-08-06T05:40:56;14.40;99.90
1992;DHT22;997;48.448;8.924;2023-08-06T05:43:22;14.50;99.90
1992;DHT22;997;48.448;8.924;2023-08-06T05:45:51;14.50;99.90
1992;DHT22;997;48.448;8.924;2023-08-06T05:48:17;14.50;99.90
1992;DHT22;997;48.448;8.924;2023-08-06T05:50:43;14.40;99.90
1992;DHT22;997;48.448;8.924;2023-08-06T05:53:08;14.40;99.90
1992;DHT22;997;48.448;8.924;2023-08-06T05:55:34;14.40;99.90
1992;DHT22;997;48.448;8.924;2023-08-06T05:58:00;14.30;99.90
1992;DHT22;997;48.448;8.924;2023-08-06T06:00:26;14.30;99.90
1992;DHT22;997;48.448;8.924;2023-08-06T06:02:52;14.20;99.90
1992;DHT22;997;48.448;8.924;2023-08-06T06:05:17;14.30;99.90
1992;DHT22;997;48.448;8.924;2023-08-06T06:07:43;14.30;99.90
1992;DHT22;997;48.448;8.924;2023-08-06T06:10:09;14.40;99.90
1992;DHT22;997;48.448;8.924;2023-08-06T06:12:35;14.40;99.90
1992;DHT22;997;48.448;8.924;2023-08-06T06:15:00;14.40;99.90
1992;DHT22;997;48.448;8.924;2023-08-06T06:17:27;14.40;99.90
1992;DHT22;997;48.448;8.924;2023-08-06T06:19:53;14.40;99.90
1992;DHT22;997;48.448;8.924;2023-08-06T06:22:18;14.40;99.90
1992;DHT22;997;48.448;8.924;2023-08-06T06:24:44;14.40;99.90
1992;DHT22;997;48.448;8.924;2023-08-06T06:27:10;14.40;99.90
1992;DHT22;997;48.448;8.924;2023-08-06T06:29:35;14.50;99.90
1992;DHT22;997;48.448;8.924;2023-08-06T06:32:01;14.40;99.90
1992;DHT22;997;48.448;8.924;2023-08-06T06:34:27;14.40;99.90
1992;DHT22;997;48.448;8.924;2023-08-06T06:36:52;14.40;99.90
1992;DHT22;997;48.448;8.924;2023-08-06T06:39:18;14.40;99.90
1992;DHT22;997;48.448;8.924;2023-08-06T06:41:43;14.40;99.90
1992;DHT22;997;48.448;8.924;2023-08-06T06:44:10;14.40;99.90
1992;DHT22;997;48.448;8.924;2023-08-06T06:46:35;14.30;99.90
1992;DHT22;997;48.448;8.924;2023-08-06T06:49:01;14.20;99.90
1992;DHT22;997;48.448;8.924;2023-08-06T06:51:27;14.20;99.90
1992;DHT22;997;48.448;8.924;2023-08-06T06:53:53;14.30;99.90
1992;DHT22;997;48.448;8.924;2023-08-06T06:56:18;14.30;99.90
1992;DHT22;997;48.448;8.924;2023-08-06T06:58:44;14.50;99.90
1992;DHT22;997;48.448;8.924;2023-08-06T07:01:10;14.60;99.90
1992;DHT22;997;48.448;8.924;2023-08-06T07:03:37;14.50;99.90
1992;DHT22;997;48.448;8.924;2023-08-06T07:06:03;14.50;99.90
1992;DHT22;997;48.448;8.924;2023-08-06T07:08:29;14.30;99.90
1992;DHT22;997;48.448;8.924;2023-08-06T07:11:05;14.30;99.90
1992;DHT22;997;48.448;8.924;2023-08-06T07:13:32;14.30;99.90
1992;DHT22;997;48.448;8.924;2023-08-06T07:15:58;14.30;99.90
1992;DHT22;997;48.448;8.924;2023-08-06T07:18:24;14.40;99.90
1992;DHT22;997;48.448;8.924;2023-08-06T07:20:54;14.40;99.90
1992;DHT22;997;48.448;8.924;2023-08-06T07:23:24;14.40;99.90
1992;DHT22;997;48.448;8.924;2023-08-06T07:25:50;14.40;99.90
1992;DHT22;997;48.448;8.924;2023-08-06T07:28:16;14.50;99.90
1992;DHT22;997;48.448;8.924;2023-08-06T07:30:43;14.50;99.90
1992;DHT22;997;48.448;8.924;2023-08-06T07:33:09;14.60;99.90
1992;DHT22;997;48.448;8.924;2023-08-06T07:35:35;14.60;99.90
1992;DHT22;997;48.448;8.924;2023-08-06T07:38:02;14.60;99.90
1992;DHT22;997;48.448;8.924;2023-08-06T07:40:28;14.70;99.90
1992;DHT22;997;48.448;8.924;2023-08-06T07:42:54;14.70;99.90
1992;DHT22;997;48.448;8.924;2023-08-06T07:45:19;14.80;99.90
1992;DHT22;997;48.448;8.924;2023-08-06T07:47:45;14.90;99.90
1992;DHT22;997;48.448;8.924;2023-08-06T07:50:11;15.00;99.90
1992;DHT22;997;48.448;8.924;2023-08-06T07:52:37;15.10;99.90
1992;DHT22;997;48.448;8.924;2023-08-06T07:55:03;15.10;99.90
1992;DHT22;997;48.448;8.924;2023-08-06T07:57:31;15.10;99.90
1992;DHT22;997;48.448;8.924;2023-08-06T07:59:56;15.00;99.90
1992;DHT22;997;48.448;8.924;2023-08-06T08:02:22;15.00;99.90
1992;DHT22;997;48.448;8.924;2023-08-06T08:04:48;14.90;99.90
1992;DHT22;997;48.448;8.924;2023-08-06T08:07:14;14.80;99.90
1992;DHT22;997;48.448;8.924;2023-08-06T08:09:40;14.70;99.90
1992;DHT22;997;48.448;8.924;2023-08-06T08:12:05;14.60;99.90
1992;DHT22;997;48.448;8.924;2023-08-06T08:14:31;14.40;99.90
1992;DHT22;997;48.448;8.924;2023-08-06T08:17:05;14.40;99.90
1992;DHT22;997;48.448;8.924;2023-08-06T08:19:31;14.50;99.90
1992;DHT22;997;48.448;8.924;2023-08-06T08:21:57;14.60;99.90
1992;DHT22;997;48.448;8.924;2023-08-06T08:24:23;14.60;99.90
1992;DHT22;997;48.448;8.924;2023-08-06T08:26:53;14.70;99.90
1992;DHT22;997;48.448;8.924;2023-08-06T08:29:22;14.70;99.90
1992;DHT22;997;48.448;8.924;2023-08-06T08:31:48;14.60;99.90
1992;DHT22;997;48.448;8.924;2023-08-06T08:34:16;14.70;99.90
1992;DHT22;997;48.448;8.924;2023-08-06T08:36:42;14.70;99.90
1992;DHT22;997;48.448;8.924;2023-08-06T08:39:08;14.70;99.90
1992;DHT22;997;48.448;8.924;2023-08-06T08:41:36;14.80;99.90
1992;DHT22;997;48.448;8.924;2023-08-06T08:44:02;14.80;99.90
1992;DHT22;997;48.448;8.924;2023-08-06T08:46:30;14.90;99.90
1992;DHT22;997;48.448;8.924;2023-08-06T08:48:59;14.70;99.90
1992;DHT22;997;48.448;8.924;2023-08-06T08:51:27;14.80;99.90
1992;DHT22;997;48.448;8.924;2023-08-06T08:53:53;14.70;99.90
1992;DHT22;997;48.448;8.924;2023-08-06T08:56:21;14.70;99.90
1992;DHT22;997;48.448;8.924;2023-08-06T08:58:47;14.70;99.90
1992;DHT22;997;48.448;8.924;2023-08-06T09:01:15;14.90;99.90
1992;DHT22;997;48.448;8.924;2023-08-06T09:03:41;14.80;99.90
1992;DHT22;997;48.448;8.924;2023-08-06T09:06:07;14.90;99.90
1992;DHT22;997;48.448;8.924;2023-08-06T09:08:39;14.90;99.90
1992;DHT22;997;48.448;8.924;2023-08-06T09:11:05;14.90;99.90
1992;DHT22;997;48.448;8.924;2023-08-06T09:13:30;15.00;99.90
1992;DHT22;997;48.448;8.924;2023-08-06T09:15:56;15.10;99.90
1992;DHT22;997;48.448;8.924;2023-08-06T09:26:02;15.70;99.90
1992;DHT22;997;48.448;8.924;2023-08-06T09:28:38;15.80;99.90
1992;DHT22;997;48.448;8.924;2023-08-06T09:31:09;15.50;99.90
1992;DHT22;997;48.448;8.924;2023-08-06T09:33:38;15.20;99.90
1992;DHT22;997;48.448;8.924;2023-08-06T09:36:11;15.10;99.90
1992;DHT22;997;48.448;8.924;2023-08-06T09:38:40;15.10;99.90
1992;DHT22;997;48.448;8.924;2023-08-06T09:41:07;15.10;99.90
1992;DHT22;997;48.448;8.924;2023-08-06T09:43:41;15.00;99.90
1992;DHT22;997;48.448;8.924;2023-08-06T09:46:16;14.90;99.90
1992;DHT22;997;48.448;8.924;2023-08-06T09:48:45;14.90;99.90
1992;DHT22;997;48.448;8.924;2023-08-06T09:51:13;14.80;99.90
1992;DHT22;997;48.448;8.924;2023-08-06T09:53:40;14.70;99.90
1992;DHT22;997;48.448;8.924;2023-08-06T09:56:06;14.60;99.90
1992;DHT22;997;48.448;8.924;2023-08-06T09:58:32;14.60;99.90
1992;DHT22;997;48.448;8.924;2023-08-06T10:00:59;14.50;99.90
1992;DHT22;997;48.448;8.924;2023-08-06T10:03:28;14.50;99.90
1992;DHT22;997;48.448;8.924;2023-08-06T10:05:55;14.30;99.90
1992;DHT22;997;48.448;8.924;2023-08-06T10:08:21;14.30;99.90
1992;DHT22;997;48.448;8.924;2023-08-06T10:10:48;14.40;99.90
1992;DHT22;997;48.448;8.924;2023-08-06T10:13:13;14.40;99.90
1992;DHT22;997;48.448;8.924;2023-08-06T10:15:40;14.40;99.90
1992;DHT22;997;48.448;8.924;2023-08-06T10:18:06;14.40;99.90
1992;DHT22;997;48.448;8.924;2023-08-06T10:20:35;14.50;99.90
1992;DHT22;997;48.448;8.924;2023-08-06T10:23:03;14.50;99.90
1992;DHT22;997;48.448;8.924;2023-08-06T10:25:33;14.50;99.90
1992;DHT22;997;48.448;8.924;2023-08-06T10:28:00;14.60;99.90
1992;DHT22;997;48.448;8.924;2023-08-06T10:30:30;14.70;99.90
1992;DHT22;997;48.448;8.924;2023-08-06T10:33:02;14.70;99.90
1992;DHT22;997;48.448;8.924;2023-08-06T10:35:33;14.80;99.90
1992;DHT22;997;48.448;8.924;2023-08-06T10:38:12;14.70;99.90
1992;DHT22;997;48.448;8.924;2023-08-06T10:40:40;14.60;99.90
1992;DHT22;997;48.448;8.924;2023-08-06T10:43:06;14.60;99.90
1992;DHT22;997;48.448;8.924;2023-08-06T10:45:35;14.60;99.90
1992;DHT22;997;48.448;8.924;2023-08-06T10:48:01;14.60;99.90
1992;DHT22;997;48.448;8.924;2023-08-06T10:50:27;14.60;99.90
1992;DHT22;997;48.448;8.924;2023-08-06T10:52:53;14.60;99.90
1992;DHT22;997;48.448;8.924;2023-08-06T10:55:27;14.50;99.90
1992;DHT22;997;48.448;8.924;2023-08-06T10:57:53;14.50;99.90
1992;DHT22;997;48.448;8.924;2023-08-06T11:00:24;14.40;99.90
1992;DHT22;997;48.448;8.924;2023-08-06T11:02:51;14.30;99.90
1992;DHT22;997;48.448;8.924;2023-08-06T11:05:17;14.40;99.90
1992;DHT22;997;48.448;8.924;2023-08-06T11:07:43;14.40;99.90
1992;DHT22;997;48.448;8.924;2023-08-06T11:10:12;14.50;99.90
1992;DHT22;997;48.448;8.924;2023-08-06T11:12:38;14.50;99.90
1992;DHT22;997;48.448;8.924;2023-08-06T11:15:05;14.60;99.90
1992;DHT22;997;48.448;8.924;2023-08-06T11:17:32;14.70;99.90
1992;DHT22;997;48.448;8.924;2023-08-06T11:20:03;14.80;99.90
1992;DHT22;997;48.448;8.924;2023-08-06T11:22:29;14.90;99.90
1992;DHT22;997;48.448;8.924;2023-08-06T11:24:55;14.90;99.90
1992;DHT22;997;48.448;8.924;2023-08-06T11:27:21;14.80;99.90
1992;DHT22;997;48.448;8.924;2023-08-06T11:29:47;14.80;99.90
1992;DHT22;997;48.448;8.924;2023-08-06T11:32:13;14.90;99.90
1992;DHT22;997;48.448;8.924;2023-08-06T11:34:39;14.90;99.90
1992;DHT22;997;48.448;8.924;2023-08-06T11:37:06;14.90;99.90
1992;DHT22;997;48.448;8.924;2023-08-06T11:39:36;15.00;99.90
1992;DHT22;997;48.448;8.924;2023-08-06T11:42:06;14.80;99.90
1992;DHT22;997;48.448;8.924;2023-08-06T11:44:36;14.80;99.90
1992;DHT22;997;48.448;8.924;2023-08-06T11:47:03;14.90;99.90
1992;DHT22;997;48.448;8.924;2023-08-06T11:49:48;14.80;99.90
1992;DHT22;997;48.448;8.924;2023-08-06T11:52:17;14.80;99.90
1992;DHT22;997;48.448;8.924;2023-08-06T11:54:45;14.90;99.90
1992;DHT22;997;48.448;8.924;2023-08-06T11:57:12;15.10;99.90
1992;DHT22;997;48.448;8.924;2023-08-06T11:59:39;15.10;99.90
1992;DHT22;997;48.448;8.924;2023-08-06T12:02:07;15.10;99.90
1992;DHT22;997;48.448;8.924;2023-08-06T12:04:59;15.20;99.90
1992;DHT22;997;48.448;8.924;2023-08-06T12:07:29;15.00;99.90
1992;DHT22;997;48.448;8.924;2023-08-06T12:09:56;14.90;99.90
1992;DHT22;997;48.448;8.924;2023-08-06T12:12:22;14.80;99.90
1992;DHT22;997;48.448;8.924;2023-08-06T12:14:48;14.80;99.90
1992;DHT22;997;48.448;8.924;2023-08-06T12:17:14;14.80;99.90
1992;DHT22;997;48.448;8.924;2023-08-06T12:19:39;14.80;99.90
1992;DHT22;997;48.448;8.924;2023-08-06T12:22:05;14.60;99.90
1992;DHT22;997;48.448;8.924;2023-08-06T12:24:31;14.70;99.90
1992;DHT22;997;48.448;8.924;2023-08-06T12:27:00;14.90;99.90
1992;DHT22;997;48.448;8.924;2023-08-06T12:29:27;15.00;99.90
1992;DHT22;997;48.448;8.924;2023-08-06T12:31:53;15.10;99.90
1992;DHT22;997;48.448;8.924;2023-08-06T12:34:19;15.20;99.90
1992;DHT22;997;48.448;8.924;2023-08-06T12:36:45;15.20;99.90
1992;DHT22;997;48.448;8.924;2023-08-06T12:39:10;15.30;99.90
1992;DHT22;997;48.448;8.924;2023-08-06T12:41:36;15.40;99.90
1992;DHT22;997;48.448;8.924;2023-08-06T12:44:02;15.40;99.90
1992;DHT22;997;48.448;8.924;2023-08-06T12:46:27;15.40;99.90
1992;DHT22;997;48.448;8.924;2023-08-06T12:48:53;15.30;99.90
1992;DHT22;997;48.448;8.924;2023-08-06T12:51:19;15.40;99.90
1992;DHT22;997;48.448;8.924;2023-08-06T12:53:44;15.60;99.90
1992;DHT22;997;48.448;8.924;2023-08-06T12:56:10;15.70;99.90
1992;DHT22;997;48.448;8.924;2023-08-06T12:58:35;15.70;99.90
1992;DHT22;997;48.448;8.924;2023-08-06T13:01:01;15.70;99.90
1992;DHT22;997;48.448;8.924;2023-08-06T13:03:27;15.70;99.90
1992;DHT22;997;48.448;8.924;2023-08-06T13:05:55;15.60;99.90
1992;DHT22;997;48.448;8.924;2023-08-06T13:08:24;15.50;99.90
1992;DHT22;997;48.448;8.924;2023-08-06T13:10:50;15.60;99.90
1992;DHT22;997;48.448;8.924;2023-08-06T13:13:15;15.60;99.90
1992;DHT22;997;48.448;8.924;2023-08-06T13:15:41;15.70;99.90
1992;DHT22;997;48.448;8.924;2023-08-06T13:18:07;16.00;99.90
1992;DHT22;997;48.448;8.924;2023-08-06T13:20:32;16.00;99.90
1992;DHT22;997;48.448;8.924;2023-08-06T13:22:59;15.90;99.90
1992;DHT22;997;48.448;8.924;2023-08-06T13:25:27;15.80;99.90
1992;DHT22;997;48.448;8.924;2023-08-06T13:27:54;15.80;99.90
1992;DHT22;997;48.448;8.924;2023-08-06T13:30:20;15.70;99.90
1992;DHT22;997;48.448;8.924;2023-08-06T13:32:46;15.90;99.90
1992;DHT22;997;48.448;8.924;2023-08-06T13:35:12;15.70;99.90
1992;DHT22;997;48.448;8.924;2023-08-06T13:37:37;15.70;99.90
1992;DHT22;997;48.448;8.924;2023-08-06T13:40:03;15.60;99.90
1992;DHT22;997;48.448;8.924;2023-08-06T13:42:29;15.60;99.90
1992;DHT22;997;48.448;8.924;2023-08-06T13:44:55;15.70;99.90
1992;DHT22;997;48.448;8.924;2023-08-06T13:47:27;15.80;99.90
1992;DHT22;997;48.448;8.924;2023-08-06T13:49:53;15.90;99.90
1992;DHT22;997;48.448;8.924;2023-08-06T13:52:19;16.10;99.90
1992;DHT22;997;48.448;8.924;2023-08-06T13:54:45;16.20;99.90
1992;DHT22;997;48.448;8.924;2023-08-06T13:57:10;16.30;99.90
1992;DHT22;997;48.448;8.924;2023-08-06T13:59:36;16.30;99.90
1992;DHT22;997;48.448;8.924;2023-08-06T14:02:02;16.30;99.90
1992;DHT22;997;48.448;8.924;2023-08-06T14:04:27;16.40;99.90
1992;DHT22;997;48.448;8.924;2023-08-06T14:06:53;16.70;99.90
1992;DHT22;997;48.448;8.924;2023-08-06T14:09:19;16.80;99.90
1992;DHT22;997;48.448;8.924;2023-08-06T14:11:45;17.00;99.90
1992;DHT22;997;48.448;8.924;2023-08-06T14:14:11;17.00;99.90
1992;DHT22;997;48.448;8.924;2023-08-06T14:16:37;16.90;99.90
1992;DHT22;997;48.448;8.924;2023-08-06T14:19:03;16.80;99.90
1992;DHT22;997;48.448;8.924;2023-08-06T14:21:29;16.80;99.90
1992;DHT22;997;48.448;8.924;2023-08-06T14:23:55;16.90;99.90
1992;DHT22;997;48.448;8.924;2023-08-06T14:26:20;17.10;99.90
1992;DHT22;997;48.448;8.924;2023-08-06T14:28:46;17.30;99.90
1992;DHT22;997;48.448;8.924;2023-08-06T14:31:12;17.20;99.90
1992;DHT22;997;48.448;8.924;2023-08-06T14:33:38;16.80;99.90
1992;DHT22;997;48.448;8.924;2023-08-06T14:36:03;16.50;99.90
1992;DHT22;997;48.448;8.924;2023-08-06T14:38:29;16.30;99.90
1992;DHT22;997;48.448;8.924;2023-08-06T14:40:57;16.20;99.90
1992;DHT22;997;48.448;8.924;2023-08-06T14:43:24;16.20;99.90
1992;DHT22;997;48.448;8.924;2023-08-06T14:45:49;16.10;99.90
1992;DHT22;997;48.448;8.924;2023-08-06T14:48:15;16.00;99.90
1992;DHT22;997;48.448;8.924;2023-08-06T14:50:41;16.30;99.90
1992;DHT22;997;48.448;8.924;2023-08-06T14:53:07;16.40;99.90
1992;DHT22;997;48.448;8.924;2023-08-06T14:55:33;16.30;99.90
1992;DHT22;997;48.448;8.924;2023-08-06T14:58:00;16.40;99.90
1992;DHT22;997;48.448;8.924;2023-08-06T15:00:26;16.50;99.90
1992;DHT22;997;48.448;8.924;2023-08-06T15:02:52;16.70;99.90
1992;DHT22;997;48.448;8.924;2023-08-06T15:05:18;17.10;99.90
1992;DHT22;997;48.448;8.924;2023-08-06T15:07:43;17.70;99.90
1992;DHT22;997;48.448;8.924;2023-08-06T15:10:09;17.80;99.90
1992;DHT22;997;48.448;8.924;2023-08-06T15:12:35;17.80;99.90
1992;DHT22;997;48.448;8.924;2023-08-06T15:15:01;17.70;99.90
1992;DHT22;997;48.448;8.924;2023-08-06T15:17:27;17.60;99.90
1992;DHT22;997;48.448;8.924;2023-08-06T15:19:56;17.40;99.90
1992;DHT22;997;48.448;8.924;2023-08-06T15:22:26;17.20;99.90
1992;DHT22;997;48.448;8.924;2023-08-06T15:24:52;17.10;99.90
1992;DHT22;997;48.448;8.924;2023-08-06T15:27:18;17.10;99.90
1992;DHT22;997;48.448;8.924;2023-08-06T15:29:44;17.00;99.90
1992;DHT22;997;48.448;8.924;2023-08-06T15:32:10;17.40;99.90
1992;DHT22;997;48.448;8.924;2023-08-06T15:34:35;18.10;99.90
1992;DHT22;997;48.448;8.924;2023-08-06T15:37:01;18.50;99.90
1992;DHT22;997;48.448;8.924;2023-08-06T15:39:27;18.90;99.90
1992;DHT22;997;48.448;8.924;2023-08-06T15:41:53;19.20;99.90
1992;DHT22;997;48.448;8.924;2023-08-06T15:44:19;19.50;99.90
1992;DHT22;997;48.448;8.924;2023-08-06T15:46:44;19.60;99.90
1992;DHT22;997;48.448;8.924;2023-08-06T15:49:10;19.40;99.90
1992;DHT22;997;48.448;8.924;2023-08-06T15:51:35;18.70;99.90
1992;DHT22;997;48.448;8.924;2023-08-06T15:54:01;17.90;99.90
1992;DHT22;997;48.448;8.924;2023-08-06T15:56:28;17.40;99.90
1992;DHT22;997;48.448;8.924;2023-08-06T15:58:54;16.90;99.90
1992;DHT22;997;48.448;8.924;2023-08-06T16:01:20;16.60;99.90
1992;DHT22;997;48.448;8.924;2023-08-06T16:03:45;16.50;99.90
1992;DHT22;997;48.448;8.924;2023-08-06T16:06:11;16.00;99.90
1992;DHT22;997;48.448;8.924;2023-08-06T16:08:37;15.60;99.90
1992;DHT22;997;48.448;8.924;2023-08-06T16:11:03;15.50;99.90
1992;DHT22;997;48.448;8.924;2023-08-06T16:13:30;15.30;99.90
1992;DHT22;997;48.448;8.924;2023-08-06T16:16:11;15.30;99.90
1992;DHT22;997;48.448;8.924;2023-08-06T16:19:03;15.10;99.90
1992;DHT22;997;48.448;8.924;2023-08-06T16:21:29;15.20;99.90
1992;DHT22;997;48.448;8.924;2023-08-06T16:23:55;15.30;99.90
1992;DHT22;997;48.448;8.924;2023-08-06T16:26:21;15.30;99.90
1992;DHT22;997;48.448;8.924;2023-08-06T16:28:46;15.50;99.90
1992;DHT22;997;48.448;8.924;2023-08-06T16:31:12;15.70;99.90
1992;DHT22;997;48.448;8.924;2023-08-06T16:33:37;15.90;99.90
1992;DHT22;997;48.448;8.924;2023-08-06T16:36:04;16.00;99.90
1992;DHT22;997;48.448;8.924;2023-08-06T16:38:30;16.00;99.90
1992;DHT22;997;48.448;8.924;2023-08-06T16:40:56;16.00;99.90
1992;DHT22;997;48.448;8.924;2023-08-06T16:43:22;16.00;99.90
1992;DHT22;997;48.448;8.924;2023-08-06T16:45:49;15.70;99.90
1992;DHT22;997;48.448;8.924;2023-08-06T16:48:14;15.70;99.90
1992;DHT22;997;48.448;8.924;2023-08-06T16:50:40;15.60;99.90
1992;DHT22;997;48.448;8.924;2023-08-06T16:53:07;15.40;99.90
1992;DHT22;997;48.448;8.924;2023-08-06T16:55:32;15.30;99.90
1992;DHT22;997;48.448;8.924;2023-08-06T16:57:58;15.00;99.90
1992;DHT22;997;48.448;8.924;2023-08-06T17:00:24;14.90;99.90
1992;DHT22;997;48.448;8.924;2023-08-06T17:02:50;14.70;99.90
1992;DHT22;997;48.448;8.924;2023-08-06T17:05:15;14.70;99.90
1992;DHT22;997;48.448;8.924;2023-08-06T17:07:41;14.60;99.90
1992;DHT22;997;48.448;8.924;2023-08-06T17:10:09;14.60;99.90
1992;DHT22;997;48.448;8.924;2023-08-06T17:12:35;14.60;99.90
1992;DHT22;997;48.448;8.924;2023-08-06T17:15:01;14.40;99.90
1992;DHT22;997;48.448;8.924;2023-08-06T17:17:27;14.40;99.90
1992;DHT22;997;48.448;8.924;2023-08-06T17:19:52;14.40;99.90
1992;DHT22;997;48.448;8.924;2023-08-06T17:22:18;14.30;99.90
1992;DHT22;997;48.448;8.924;2023-08-06T17:24:44;14.40;99.90
1992;DHT22;997;48.448;8.924;2023-08-06T17:27:09;14.40;99.90
1992;DHT22;997;48.448;8.924;2023-08-06T17:29:35;14.40;99.90
1992;DHT22;997;48.448;8.924;2023-08-06T17:32:01;14.40;99.90
1992;DHT22;997;48.448;8.924;2023-08-06T17:34:28;14.50;99.90
1992;DHT22;997;48.448;8.924;2023-08-06T17:36:54;14.50;99.90
1992;DHT22;997;48.448;8.924;2023-08-06T17:39:19;14.40;99.90
1992;DHT22;997;48.448;8.924;2023-08-06T17:41:45;14.30;99.90
1992;DHT22;997;48.448;8.924;2023-08-06T17:44:14;14.20;99.90
1992;DHT22;997;48.448;8.924;2023-08-06T17:46:40;14.30;99.90
1992;DHT22;997;48.448;8.924;2023-08-06T17:49:05;14.30;99.90
1992;DHT22;997;48.448;8.924;2023-08-06T17:51:31;14.40;99.90
1992;DHT22;997;48.448;8.924;2023-08-06T17:53:56;14.40;99.90
1992;DHT22;997;48.448;8.924;2023-08-06T17:56:22;14.30;99.90
1992;DHT22;997;48.448;8.924;2023-08-06T17:58:48;14.30;99.90
1992;DHT22;997;48.448;8.924;2023-08-06T18:01:13;14.30;99.90
1992;DHT22;997;48.448;8.924;2023-08-06T18:03:39;14.30;99.90
1992;DHT22;997;48.448;8.924;2023-08-06T18:06:05;14.20;99.90
1992;DHT22;997;48.448;8.924;2023-08-06T18:08:30;14.20;99.90
1992;DHT22;997;48.448;8.924;2023-08-06T18:10:56;14.00;99.90
1992;DHT22;997;48.448;8.924;2023-08-06T18:13:22;14.00;99.90
1992;DHT22;997;48.448;8.924;2023-08-06T18:15:47;14.00;99.90
1992;DHT22;997;48.448;8.924;2023-08-06T18:18:14;14.00;99.90
1992;DHT22;997;48.448;8.924;2023-08-06T18:20:40;14.00;99.90
1992;DHT22;997;48.448;8.924;2023-08-06T18:23:06;14.10;99.90
1992;DHT22;997;48.448;8.924;2023-08-06T18:25:31;14.10;99.90
1992;DHT22;997;48.448;8.924;2023-08-06T18:27:58;14.10;99.90
1992;DHT22;997;48.448;8.924;2023-08-06T18:30:24;14.20;99.90
1992;DHT22;997;48.448;8.924;2023-08-06T18:32:50;13.90;99.90
1992;DHT22;997;48.448;8.924;2023-08-06T18:35:15;13.90;99.90
1992;DHT22;997;48.448;8.924;2023-08-06T18:37:41;13.90;99.90
1992;DHT22;997;48.448;8.924;2023-08-06T18:40:08;13.90;99.90
1992;DHT22;997;48.448;8.924;2023-08-06T18:42:35;13.90;99.90
1992;DHT22;997;48.448;8.924;2023-08-06T18:45:00;13.80;99.90
1992;DHT22;997;48.448;8.924;2023-08-06T18:47:30;13.80;99.90
1992;DHT22;997;48.448;8.924;2023-08-06T18:49:55;13.80;99.90
1992;DHT22;997;48.448;8.924;2023-08-06T18:52:21;13.70;99.90
1992;DHT22;997;48.448;8.924;2023-08-06T18:54:47;13.80;99.90
1992;DHT22;997;48.448;8.924;2023-08-06T18:57:12;13.60;99.90
1992;DHT22;997;48.448;8.924;2023-08-06T18:59:38;13.60;99.90
1992;DHT22;997;48.448;8.924;2023-08-06T19:02:04;13.60;99.90
1992;DHT22;997;48.448;8.924;2023-08-06T19:04:30;13.60;99.90
1992;DHT22;997;48.448;8.924;2023-08-06T19:06:56;13.60;99.90
1992;DHT22;997;48.448;8.924;2023-08-06T19:09:22;13.70;99.90
1992;DHT22;997;48.448;8.924;2023-08-06T19:11:47;13.70;99.90
1992;DHT22;997;48.448;8.924;2023-08-06T19:14:13;13.60;99.90
1992;DHT22;997;48.448;8.924;2023-08-06T19:16:39;13.60;99.90
1992;DHT22;997;48.448;8.924;2023-08-06T19:19:11;13.60;99.90
1992;DHT22;997;48.448;8.924;2023-08-06T19:21:36;13.60;99.90
1992;DHT22;997;48.448;8.924;2023-08-06T19:24:02;13.60;99.90